sensor_id;sensor_type;location;lat;lon;timestamp;P1;durP1;ratioP1;P2;durP2;ratioP2
62927;SDS011;51070;52.236;-0.892;2023-07-31T00:01:17;6.60;;;2.40;;
62927;SDS011;51070;52.236;-0.892;2023-07-31T00:03:42;3.30;;;1.60;;
62927;SDS011;51070;52.236;-0.892;2023-07-31T00:06:08;4.00;;;1.70;;
62927;SDS011;51070;52.236;-0.892;2023-07-31T00:08:33;6.70;;;2.40;;
62927;SDS011;51070;52.236;-0.892;2023-07-31T00:10:58;5.10;;;2.20;;
62927;SDS011;51070;52.236;-0.892;2023-07-31T00:13:24;3.80;;;1.50;;
62927;SDS011;51070;52.236;-0.892;2023-07-31T00:15:49;4.80;;;1.90;;
62927;SDS011;51070;52.236;-0.892;2023-07-31T00:18:15;4.10;;;1.90;;
62927;SDS011;51070;52.236;-0.892;2023-07-31T00:20:40;5.20;;;2.30;;
62927;SDS011;51070;52.236;-0.892;2023-07-31T00:23:06;4.50;;;2.30;;
62927;SDS011;51070;52.236;-0.892;2023-07-31T00:25:31;2.80;;;1.60;;
62927;SDS011;51070;52.236;-0.892;2023-07-31T00:27:57;10.60;;;2.10;;
62927;SDS011;51070;52.236;-0.892;2023-07-31T00:30:22;3.90;;;1.90;;
62927;SDS011;51070;52.236;-0.892;2023-07-31T00:32:47;4.80;;;2.10;;
62927;SDS011;51070;52.236;-0.892;2023-07-31T00:35:13;5.50;;;2.00;;
62927;SDS011;51070;52.236;-0.892;2023-07-31T00:37:38;2.20;;;1.20;;
62927;SDS011;51070;52.236;-0.892;2023-07-31T00:40:04;2.60;;;1.50;;
62927;SDS011;51070;52.236;-0.892;2023-07-31T00:42:30;5.00;;;2.10;;
62927;SDS011;51070;52.236;-0.892;2023-07-31T00:44:55;4.20;;;1.80;;
62927;SDS011;51070;52.236;-0.892;2023-07-31T00:47:20;3.20;;;1.50;;
62927;SDS011;51070;52.236;-0.892;2023-07-31T00:49:46;3.00;;;1.70;;
62927;SDS011;51070;52.236;-0.892;2023-07-31T00:52:11;2.50;;;1.40;;
62927;SDS011;51070;52.236;-0.892;2023-07-31T00:54:37;3.20;;;1.30;;
62927;SDS011;51070;52.236;-0.892;2023-07-31T00:57:04;4.00;;;1.30;;
62927;SDS011;51070;52.236;-0.892;2023-07-31T00:59:30;3.70;;;1.20;;
62927;SDS011;51070;52.236;-0.892;2023-07-31T01:01:55;4.30;;;1.50;;
62927;SDS011;51070;52.236;-0.892;2023-07-31T01:04:20;3.00;;;1.00;;
62927;SDS011;51070;52.236;-0.892;2023-07-31T01:07:08;1.90;;;1.20;;
62927;SDS011;51070;52.236;-0.892;2023-07-31T01:12:09;1.20;;;0.90;;
62927;SDS011;51070;52.236;-0.892;2023-07-31T01:14:39;2.40;;;0.90;;
62927;SDS011;51070;52.236;-0.892;2023-07-31T01:17:05;2.20;;;1.00;;
62927;SDS011;51070;52.236;-0.892;2023-07-31T01:19:30;1.20;;;1.00;;
62927;SDS011;51070;52.236;-0.892;2023-07-31T01:27:10;2.00;;;0.80;;
62927;SDS011;51070;52.236;-0.892;2023-07-31T01:32:14;1.70;;;0.80;;
62927;SDS011;51070;52.236;-0.892;2023-07-31T01:34:42;1.60;;;1.00;;
62927;SDS011;51070;52.236;-0.892;2023-07-31T01:37:09;0.90;;;0.70;;
62927;SDS011;51070;52.236;-0.892;2023-07-31T01:39:34;1.30;;;0.80;;
62927;SDS011;51070;52.236;-0.892;2023-07-31T01:42:00;2.50;;;0.90;;
62927;SDS011;51070;52.236;-0.892;2023-07-31T01:44:25;2.40;;;0.60;;
62927;SDS011;51070;52.236;-0.892;2023-07-31T01:46:50;2.50;;;0.70;;
62927;SDS011;51070;52.236;-0.892;2023-07-31T01:49:16;2.00;;;0.60;;
62927;SDS011;51070;52.236;-0.892;2023-07-31T01:51:41;1.40;;;0.70;;
62927;SDS011;51070;52.236;-0.892;2023-07-31T01:54:06;1.90;;;0.50;;
62927;SDS011;51070;52.236;-0.892;2023-07-31T01:56:32;0.90;;;0.60;;
62927;SDS011;51070;52.236;-0.892;2023-07-31T01:58:57;1.30;;;0.70;;
62927;SDS011;51070;52.236;-0.892;2023-07-31T02:01:22;1.80;;;0.70;;
62927;SDS011;51070;52.236;-0.892;2023-07-31T02:03:48;2.60;;;0.90;;
62927;SDS011;51070;52.236;-0.892;2023-07-31T02:06:13;2.70;;;0.70;;
62927;SDS011;51070;52.236;-0.892;2023-07-31T02:08:39;2.60;;;0.60;;
62927;SDS011;51070;52.236;-0.892;2023-07-31T02:11:04;1.10;;;0.70;;
62927;SDS011;51070;52.236;-0.892;2023-07-31T02:13:29;1.60;;;0.60;;
62927;SDS011;51070;52.236;-0.892;2023-07-31T02:15:55;0.90;;;0.50;;
62927;SDS011;51070;52.236;-0.892;2023-07-31T02:18:20;0.70;;;0.40;;
62927;SDS011;51070;52.236;-0.892;2023-07-31T02:20:50;2.00;;;0.60;;
62927;SDS011;51070;52.236;-0.892;2023-07-31T02:23:16;0.90;;;0.50;;
62927;SDS011;51070;52.236;-0.892;2023-07-31T02:25:43;1.00;;;0.60;;
62927;SDS011;51070;52.236;-0.892;2023-07-31T02:28:09;2.90;;;0.70;;
62927;SDS011;51070;52.236;-0.892;2023-07-31T02:30:34;1.90;;;0.70;;
62927;SDS011;51070;52.236;-0.892;2023-07-31T02:33:00;1.40;;;0.60;;
62927;SDS011;51070;52.236;-0.892;2023-07-31T02:35:25;3.50;;;1.40;;
62927;SDS011;51070;52.236;-0.892;2023-07-31T02:37:50;1.60;;;0.80;;
62927;SDS011;51070;52.236;-0.892;2023-07-31T02:40:16;0.60;;;0.60;;
62927;SDS011;51070;52.236;-0.892;2023-07-31T02:42:41;1.50;;;0.70;;
62927;SDS011;51070;52.236;-0.892;2023-07-31T02:45:07;1.70;;;0.80;;
62927;SDS011;51070;52.236;-0.892;2023-07-31T02:47:33;0.90;;;0.50;;
62927;SDS011;51070;52.236;-0.892;2023-07-31T02:49:58;2.60;;;0.80;;
62927;SDS011;51070;52.236;-0.892;2023-07-31T02:52:25;2.40;;;0.80;;
62927;SDS011;51070;52.236;-0.892;2023-07-31T02:54:50;1.90;;;0.80;;
62927;SDS011;51070;52.236;-0.892;2023-07-31T02:57:15;3.50;;;0.90;;
62927;SDS011;51070;52.236;-0.892;2023-07-31T02:59:41;1.20;;;0.80;;
62927;SDS011;51070;52.236;-0.892;2023-07-31T03:02:06;1.20;;;0.60;;
62927;SDS011;51070;52.236;-0.892;2023-07-31T03:04:32;0.50;;;0.50;;
62927;SDS011;51070;52.236;-0.892;2023-07-31T03:06:57;0.40;;;0.40;;
62927;SDS011;51070;52.236;-0.892;2023-07-31T03:09:23;1.30;;;0.60;;
62927;SDS011;51070;52.236;-0.892;2023-07-31T03:11:48;2.30;;;1.00;;
62927;SDS011;51070;52.236;-0.892;2023-07-31T03:14:13;0.60;;;0.40;;
62927;SDS011;51070;52.236;-0.892;2023-07-31T03:16:39;2.20;;;0.70;;
62927;SDS011;51070;52.236;-0.892;2023-07-31T03:19:04;2.90;;;0.80;;
62927;SDS011;51070;52.236;-0.892;2023-07-31T03:21:29;0.70;;;0.40;;
62927;SDS011;51070;52.236;-0.892;2023-07-31T03:23:55;0.70;;;0.40;;
62927;SDS011;51070;52.236;-0.892;2023-07-31T03:26:20;0.70;;;0.40;;
62927;SDS011;51070;52.236;-0.892;2023-07-31T03:28:46;0.30;;;0.30;;
62927;SDS011;51070;52.236;-0.892;2023-07-31T03:31:11;1.10;;;0.60;;
62927;SDS011;51070;52.236;-0.892;2023-07-31T03:33:36;0.50;;;0.40;;
62927;SDS011;51070;52.236;-0.892;2023-07-31T03:36:02;0.90;;;0.40;;
62927;SDS011;51070;52.236;-0.892;2023-07-31T03:38:27;0.60;;;0.30;;
62927;SDS011;51070;52.236;-0.892;2023-07-31T03:40:53;0.50;;;0.40;;
62927;SDS011;51070;52.236;-0.892;2023-07-31T03:43:18;1.20;;;0.70;;
62927;SDS011;51070;52.236;-0.892;2023-07-31T03:45:43;1.40;;;0.60;;
62927;SDS011;51070;52.236;-0.892;2023-07-31T03:48:09;0.70;;;0.40;;
62927;SDS011;51070;52.236;-0.892;2023-07-31T03:50:35;1.10;;;0.90;;
62927;SDS011;51070;52.236;-0.892;2023-07-31T03:53:00;1.00;;;0.50;;
62927;SDS011;51070;52.236;-0.892;2023-07-31T03:55:25;2.00;;;0.50;;
62927;SDS011;51070;52.236;-0.892;2023-07-31T03:57:50;1.40;;;0.70;;
62927;SDS011;51070;52.236;-0.892;2023-07-31T04:00:16;2.30;;;0.70;;
62927;SDS011;51070;52.236;-0.892;2023-07-31T04:02:41;2.10;;;0.60;;
62927;SDS011;51070;52.236;-0.892;2023-07-31T04:05:07;1.10;;;0.30;;
62927;SDS011;51070;52.236;-0.892;2023-07-31T04:07:32;1.00;;;0.80;;
62927;SDS011;51070;52.236;-0.892;2023-07-31T04:09:59;1.20;;;0.50;;
62927;SDS011;51070;52.236;-0.892;2023-07-31T04:12:25;1.50;;;0.70;;
62927;SDS011;51070;52.236;-0.892;2023-07-31T04:14:50;2.60;;;0.90;;
62927;SDS011;51070;52.236;-0.892;2023-07-31T04:17:17;0.60;;;0.60;;
62927;SDS011;51070;52.236;-0.892;2023-07-31T04:19:43;2.10;;;0.60;;
62927;SDS011;51070;52.236;-0.892;2023-07-31T04:22:08;1.50;;;0.40;;
62927;SDS011;51070;52.236;-0.892;2023-07-31T04:24:33;0.70;;;0.60;;
62927;SDS011;51070;52.236;-0.892;2023-07-31T04:26:59;1.10;;;0.40;;
62927;SDS011;51070;52.236;-0.892;2023-07-31T04:29:24;0.50;;;0.50;;
62927;SDS011;51070;52.236;-0.892;2023-07-31T04:31:49;0.50;;;0.40;;
62927;SDS011;51070;52.236;-0.892;2023-07-31T04:34:15;2.30;;;0.60;;
62927;SDS011;51070;52.236;-0.892;2023-07-31T04:36:40;0.90;;;0.50;;
62927;SDS011;51070;52.236;-0.892;2023-07-31T04:39:05;0.30;;;0.30;;
62927;SDS011;51070;52.236;-0.892;2023-07-31T04:41:31;1.10;;;0.80;;
62927;SDS011;51070;52.236;-0.892;2023-07-31T04:43:56;2.70;;;0.70;;
62927;SDS011;51070;52.236;-0.892;2023-07-31T04:46:22;3.40;;;0.70;;
62927;SDS011;51070;52.236;-0.892;2023-07-31T04:48:47;1.10;;;0.70;;
62927;SDS011;51070;52.236;-0.892;2023-07-31T04:51:12;1.20;;;0.80;;
62927;SDS011;51070;52.236;-0.892;2023-07-31T04:53:38;0.80;;;0.60;;
62927;SDS011;51070;52.236;-0.892;2023-07-31T04:56:04;0.40;;;0.40;;
62927;SDS011;51070;52.236;-0.892;2023-07-31T04:58:29;2.00;;;0.70;;
62927;SDS011;51070;52.236;-0.892;2023-07-31T05:00:54;1.40;;;0.50;;
62927;SDS011;51070;52.236;-0.892;2023-07-31T05:03:20;2.20;;;0.60;;
62927;SDS011;51070;52.236;-0.892;2023-07-31T05:05:45;1.70;;;0.60;;
62927;SDS011;51070;52.236;-0.892;2023-07-31T05:08:11;0.80;;;0.60;;
62927;SDS011;51070;52.236;-0.892;2023-07-31T05:10:36;1.10;;;0.60;;
62927;SDS011;51070;52.236;-0.892;2023-07-31T05:13:02;2.60;;;0.70;;
62927;SDS011;51070;52.236;-0.892;2023-07-31T05:15:28;1.10;;;0.50;;
62927;SDS011;51070;52.236;-0.892;2023-07-31T05:17:53;1.10;;;0.70;;
62927;SDS011;51070;52.236;-0.892;2023-07-31T05:20:19;1.90;;;1.10;;
62927;SDS011;51070;52.236;-0.892;2023-07-31T05:22:44;1.50;;;0.80;;
62927;SDS011;51070;52.236;-0.892;2023-07-31T05:25:10;1.90;;;1.20;;
62927;SDS011;51070;52.236;-0.892;2023-07-31T05:27:35;1.30;;;0.90;;
62927;SDS011;51070;52.236;-0.892;2023-07-31T05:30:00;2.60;;;1.10;;
62927;SDS011;51070;52.236;-0.892;2023-07-31T05:32:26;1.60;;;1.00;;
62927;SDS011;51070;52.236;-0.892;2023-07-31T05:34:51;2.10;;;1.20;;
62927;SDS011;51070;52.236;-0.892;2023-07-31T05:37:18;3.10;;;1.10;;
62927;SDS011;51070;52.236;-0.892;2023-07-31T05:39:43;1.90;;;1.20;;
62927;SDS011;51070;52.236;-0.892;2023-07-31T05:42:09;1.40;;;1.00;;
62927;SDS011;51070;52.236;-0.892;2023-07-31T05:44:34;1.60;;;0.90;;
62927;SDS011;51070;52.236;-0.892;2023-07-31T05:46:59;2.20;;;1.30;;
62927;SDS011;51070;52.236;-0.892;2023-07-31T05:49:25;2.50;;;1.40;;
62927;SDS011;51070;52.236;-0.892;2023-07-31T05:51:50;2.60;;;1.50;;
62927;SDS011;51070;52.236;-0.892;2023-07-31T05:54:16;3.80;;;1.50;;
62927;SDS011;51070;52.236;-0.892;2023-07-31T05:56:41;2.90;;;1.40;;
62927;SDS011;51070;52.236;-0.892;2023-07-31T05:59:08;2.90;;;1.70;;
62927;SDS011;51070;52.236;-0.892;2023-07-31T06:01:35;4.20;;;1.90;;
62927;SDS011;51070;52.236;-0.892;2023-07-31T06:04:01;2.50;;;1.50;;
62927;SDS011;51070;52.236;-0.892;2023-07-31T06:06:27;4.70;;;1.50;;
62927;SDS011;51070;52.236;-0.892;2023-07-31T06:08:53;3.50;;;1.90;;
62927;SDS011;51070;52.236;-0.892;2023-07-31T06:11:19;3.10;;;1.60;;
62927;SDS011;51070;52.236;-0.892;2023-07-31T06:13:45;4.80;;;1.50;;
62927;SDS011;51070;52.236;-0.892;2023-07-31T06:16:13;5.00;;;1.50;;
62927;SDS011;51070;52.236;-0.892;2023-07-31T06:18:38;2.70;;;1.70;;
62927;SDS011;51070;52.236;-0.892;2023-07-31T06:21:04;3.90;;;2.10;;
62927;SDS011;51070;52.236;-0.892;2023-07-31T06:23:29;2.90;;;2.20;;
62927;SDS011;51070;52.236;-0.892;2023-07-31T06:25:55;2.40;;;1.70;;
62927;SDS011;51070;52.236;-0.892;2023-07-31T06:28:20;2.30;;;1.70;;
62927;SDS011;51070;52.236;-0.892;2023-07-31T06:30:45;2.50;;;1.90;;
62927;SDS011;51070;52.236;-0.892;2023-07-31T06:33:11;3.90;;;1.90;;
62927;SDS011;51070;52.236;-0.892;2023-07-31T06:35:36;4.30;;;1.80;;
62927;SDS011;51070;52.236;-0.892;2023-07-31T06:38:01;4.70;;;2.20;;
62927;SDS011;51070;52.236;-0.892;2023-07-31T06:40:27;4.00;;;2.20;;
62927;SDS011;51070;52.236;-0.892;2023-07-31T06:42:53;2.50;;;1.60;;
62927;SDS011;51070;52.236;-0.892;2023-07-31T06:45:19;2.50;;;1.90;;
62927;SDS011;51070;52.236;-0.892;2023-07-31T06:47:45;5.50;;;2.00;;
62927;SDS011;51070;52.236;-0.892;2023-07-31T06:50:11;4.40;;;2.40;;
62927;SDS011;51070;52.236;-0.892;2023-07-31T06:52:36;4.50;;;2.30;;
62927;SDS011;51070;52.236;-0.892;2023-07-31T06:55:20;3.80;;;2.10;;
62927;SDS011;51070;52.236;-0.892;2023-07-31T06:57:52;5.80;;;2.20;;
62927;SDS011;51070;52.236;-0.892;2023-07-31T07:00:19;4.80;;;2.30;;
62927;SDS011;51070;52.236;-0.892;2023-07-31T07:02:45;4.80;;;2.30;;
62927;SDS011;51070;52.236;-0.892;2023-07-31T07:05:14;4.60;;;2.30;;
62927;SDS011;51070;52.236;-0.892;2023-07-31T07:07:40;3.30;;;2.10;;
62927;SDS011;51070;52.236;-0.892;2023-07-31T07:10:06;4.40;;;2.20;;
62927;SDS011;51070;52.236;-0.892;2023-07-31T07:12:32;5.80;;;2.50;;
62927;SDS011;51070;52.236;-0.892;2023-07-31T07:15:01;3.30;;;2.30;;
62927;SDS011;51070;52.236;-0.892;2023-07-31T07:17:28;5.40;;;2.40;;
62927;SDS011;51070;52.236;-0.892;2023-07-31T07:19:57;3.40;;;2.30;;
62927;SDS011;51070;52.236;-0.892;2023-07-31T07:22:23;3.60;;;2.00;;
62927;SDS011;51070;52.236;-0.892;2023-07-31T07:24:49;5.20;;;2.30;;
62927;SDS011;51070;52.236;-0.892;2023-07-31T07:27:14;3.70;;;1.90;;
62927;SDS011;51070;52.236;-0.892;2023-07-31T07:29:40;4.90;;;1.90;;
62927;SDS011;51070;52.236;-0.892;2023-07-31T07:32:05;2.90;;;1.90;;
62927;SDS011;51070;52.236;-0.892;2023-07-31T07:34:31;3.40;;;1.80;;
62927;SDS011;51070;52.236;-0.892;2023-07-31T07:36:56;2.40;;;1.60;;
62927;SDS011;51070;52.236;-0.892;2023-07-31T07:39:22;3.60;;;1.60;;
62927;SDS011;51070;52.236;-0.892;2023-07-31T07:41:47;2.30;;;1.70;;
62927;SDS011;51070;52.236;-0.892;2023-07-31T07:44:13;2.50;;;1.50;;
62927;SDS011;51070;52.236;-0.892;2023-07-31T07:46:39;5.60;;;1.80;;
62927;SDS011;51070;52.236;-0.892;2023-07-31T07:49:05;3.30;;;1.70;;
62927;SDS011;51070;52.236;-0.892;2023-07-31T07:51:30;4.10;;;2.00;;
62927;SDS011;51070;52.236;-0.892;2023-07-31T07:53:57;2.30;;;1.40;;
62927;SDS011;51070;52.236;-0.892;2023-07-31T07:56:23;2.30;;;1.20;;
62927;SDS011;51070;52.236;-0.892;2023-07-31T07:58:49;3.30;;;1.40;;
62927;SDS011;51070;52.236;-0.892;2023-07-31T08:01:15;2.60;;;1.70;;
62927;SDS011;51070;52.236;-0.892;2023-07-31T08:03:41;4.00;;;1.50;;
62927;SDS011;51070;52.236;-0.892;2023-07-31T08:06:06;2.40;;;1.60;;
62927;SDS011;51070;52.236;-0.892;2023-07-31T08:08:34;4.10;;;1.50;;
62927;SDS011;51070;52.236;-0.892;2023-07-31T08:11:02;2.00;;;1.50;;
62927;SDS011;51070;52.236;-0.892;2023-07-31T08:13:28;3.50;;;1.40;;
62927;SDS011;51070;52.236;-0.892;2023-07-31T08:15:54;3.40;;;1.70;;
62927;SDS011;51070;52.236;-0.892;2023-07-31T08:18:19;2.40;;;1.10;;
62927;SDS011;51070;52.236;-0.892;2023-07-31T08:20:45;2.00;;;1.60;;
62927;SDS011;51070;52.236;-0.892;2023-07-31T08:23:10;4.70;;;1.70;;
62927;SDS011;51070;52.236;-0.892;2023-07-31T08:25:36;3.70;;;1.90;;
62927;SDS011;51070;52.236;-0.892;2023-07-31T08:28:02;3.30;;;1.80;;
62927;SDS011;51070;52.236;-0.892;2023-07-31T08:30:31;3.00;;;1.90;;
62927;SDS011;51070;52.236;-0.892;2023-07-31T08:32:58;3.80;;;2.10;;
62927;SDS011;51070;52.236;-0.892;2023-07-31T08:35:24;3.00;;;2.10;;
62927;SDS011;51070;52.236;-0.892;2023-07-31T08:37:53;4.70;;;2.20;;
62927;SDS011;51070;52.236;-0.892;2023-07-31T08:40:18;3.60;;;2.50;;
62927;SDS011;51070;52.236;-0.892;2023-07-31T08:42:44;6.30;;;3.00;;
62927;SDS011;51070;52.236;-0.892;2023-07-31T08:45:19;3.50;;;2.60;;
62927;SDS011;51070;52.236;-0.892;2023-07-31T08:47:46;4.40;;;2.70;;
62927;SDS011;51070;52.236;-0.892;2023-07-31T08:50:13;4.60;;;2.80;;
62927;SDS011;51070;52.236;-0.892;2023-07-31T08:52:40;4.90;;;2.70;;
62927;SDS011;51070;52.236;-0.892;2023-07-31T08:55:06;4.10;;;2.40;;
62927;SDS011;51070;52.236;-0.892;2023-07-31T08:57:33;5.30;;;2.10;;
62927;SDS011;51070;52.236;-0.892;2023-07-31T09:00:00;4.10;;;2.90;;
62927;SDS011;51070;52.236;-0.892;2023-07-31T09:02:28;3.70;;;2.60;;
62927;SDS011;51070;52.236;-0.892;2023-07-31T09:05:02;5.20;;;3.40;;
62927;SDS011;51070;52.236;-0.892;2023-07-31T09:09:57;4.00;;;2.80;;
62927;SDS011;51070;52.236;-0.892;2023-07-31T09:12:22;4.40;;;2.50;;
62927;SDS011;51070;52.236;-0.892;2023-07-31T09:14:47;4.30;;;2.70;;
62927;SDS011;51070;52.236;-0.892;2023-07-31T09:17:13;4.50;;;3.00;;
62927;SDS011;51070;52.236;-0.892;2023-07-31T09:19:38;6.10;;;2.70;;
62927;SDS011;51070;52.236;-0.892;2023-07-31T09:22:04;5.30;;;2.90;;
62927;SDS011;51070;52.236;-0.892;2023-07-31T09:24:32;5.50;;;2.80;;
62927;SDS011;51070;52.236;-0.892;2023-07-31T09:26:59;6.40;;;3.00;;
62927;SDS011;51070;52.236;-0.892;2023-07-31T09:29:26;3.60;;;2.40;;
62927;SDS011;51070;52.236;-0.892;2023-07-31T09:31:52;7.00;;;3.20;;
62927;SDS011;51070;52.236;-0.892;2023-07-31T09:34:19;5.10;;;2.60;;
62927;SDS011;51070;52.236;-0.892;2023-07-31T09:36:46;4.50;;;3.00;;
62927;SDS011;51070;52.236;-0.892;2023-07-31T09:39:14;2.60;;;1.90;;
62927;SDS011;51070;52.236;-0.892;2023-07-31T09:41:45;6.30;;;2.40;;
62927;SDS011;51070;52.236;-0.892;2023-07-31T09:44:13;3.80;;;2.50;;
62927;SDS011;51070;52.236;-0.892;2023-07-31T09:46:38;7.00;;;2.80;;
62927;SDS011;51070;52.236;-0.892;2023-07-31T09:51:39;5.20;;;2.60;;
62927;SDS011;51070;52.236;-0.892;2023-07-31T09:54:14;4.30;;;2.40;;
62927;SDS011;51070;52.236;-0.892;2023-07-31T09:56:47;5.10;;;2.90;;
62927;SDS011;51070;52.236;-0.892;2023-07-31T09:59:20;4.90;;;2.50;;
62927;SDS011;51070;52.236;-0.892;2023-07-31T10:01:46;3.40;;;2.60;;
62927;SDS011;51070;52.236;-0.892;2023-07-31T10:04:12;6.60;;;3.00;;
62927;SDS011;51070;52.236;-0.892;2023-07-31T10:06:39;3.80;;;2.30;;
62927;SDS011;51070;52.236;-0.892;2023-07-31T10:09:08;3.30;;;2.60;;
62927;SDS011;51070;52.236;-0.892;2023-07-31T10:11:43;3.70;;;2.20;;
62927;SDS011;51070;52.236;-0.892;2023-07-31T10:14:17;5.10;;;2.80;;
62927;SDS011;51070;52.236;-0.892;2023-07-31T10:16:45;4.50;;;2.40;;
62927;SDS011;51070;52.236;-0.892;2023-07-31T10:19:10;4.30;;;2.10;;
62927;SDS011;51070;52.236;-0.892;2023-07-31T10:21:36;6.80;;;2.40;;
62927;SDS011;51070;52.236;-0.892;2023-07-31T10:24:03;5.70;;;2.70;;
62927;SDS011;51070;52.236;-0.892;2023-07-31T10:26:31;4.70;;;2.90;;
62927;SDS011;51070;52.236;-0.892;2023-07-31T10:28:58;4.90;;;2.60;;
62927;SDS011;51070;52.236;-0.892;2023-07-31T10:31:25;6.00;;;3.00;;
62927;SDS011;51070;52.236;-0.892;2023-07-31T10:33:53;5.10;;;2.50;;
62927;SDS011;51070;52.236;-0.892;2023-07-31T10:36:21;3.60;;;2.10;;
62927;SDS011;51070;52.236;-0.892;2023-07-31T10:38:49;2.90;;;1.80;;
62927;SDS011;51070;52.236;-0.892;2023-07-31T10:41:18;4.50;;;2.20;;
62927;SDS011;51070;52.236;-0.892;2023-07-31T10:43:45;6.90;;;2.60;;
62927;SDS011;51070;52.236;-0.892;2023-07-31T10:46:12;5.80;;;2.40;;
62927;SDS011;51070;52.236;-0.892;2023-07-31T10:48:39;5.60;;;2.70;;
62927;SDS011;51070;52.236;-0.892;2023-07-31T10:51:09;7.90;;;2.30;;
62927;SDS011;51070;52.236;-0.892;2023-07-31T10:53:38;5.90;;;2.40;;
62927;SDS011;51070;52.236;-0.892;2023-07-31T10:56:08;8.10;;;2.50;;
62927;SDS011;51070;52.236;-0.892;2023-07-31T10:58:38;4.30;;;1.90;;
62927;SDS011;51070;52.236;-0.892;2023-07-31T11:01:04;4.70;;;2.70;;
62927;SDS011;51070;52.236;-0.892;2023-07-31T11:06:13;5.70;;;2.20;;
62927;SDS011;51070;52.236;-0.892;2023-07-31T11:08:43;7.20;;;2.50;;
62927;SDS011;51070;52.236;-0.892;2023-07-31T11:11:14;7.70;;;2.70;;
62927;SDS011;51070;52.236;-0.892;2023-07-31T11:13:47;7.30;;;2.20;;
62927;SDS011;51070;52.236;-0.892;2023-07-31T11:16:21;6.00;;;2.70;;
62927;SDS011;51070;52.236;-0.892;2023-07-31T11:18:48;4.50;;;2.80;;
62927;SDS011;51070;52.236;-0.892;2023-07-31T11:21:14;10.40;;;2.60;;
62927;SDS011;51070;52.236;-0.892;2023-07-31T11:23:45;4.70;;;1.90;;
62927;SDS011;51070;52.236;-0.892;2023-07-31T11:26:12;7.60;;;2.50;;
62927;SDS011;51070;52.236;-0.892;2023-07-31T11:28:37;7.80;;;3.20;;
62927;SDS011;51070;52.236;-0.892;2023-07-31T11:31:03;4.80;;;2.40;;
62927;SDS011;51070;52.236;-0.892;2023-07-31T11:33:29;4.00;;;2.40;;
62927;SDS011;51070;52.236;-0.892;2023-07-31T11:35:55;6.00;;;2.80;;
62927;SDS011;51070;52.236;-0.892;2023-07-31T11:40:49;13.40;;;3.00;;
62927;SDS011;51070;52.236;-0.892;2023-07-31T11:43:15;5.60;;;2.90;;
62927;SDS011;51070;52.236;-0.892;2023-07-31T11:45:45;5.90;;;2.80;;
62927;SDS011;51070;52.236;-0.892;2023-07-31T11:48:19;8.30;;;2.60;;
62927;SDS011;51070;52.236;-0.892;2023-07-31T11:50:46;4.70;;;2.50;;
62927;SDS011;51070;52.236;-0.892;2023-07-31T11:53:12;4.90;;;2.30;;
62927;SDS011;51070;52.236;-0.892;2023-07-31T11:55:38;10.50;;;2.50;;
62927;SDS011;51070;52.236;-0.892;2023-07-31T11:58:04;5.80;;;2.60;;
62927;SDS011;51070;52.236;-0.892;2023-07-31T12:00:29;5.00;;;2.80;;
62927;SDS011;51070;52.236;-0.892;2023-07-31T12:02:55;6.30;;;3.00;;
62927;SDS011;51070;52.236;-0.892;2023-07-31T12:05:21;6.40;;;2.50;;
62927;SDS011;51070;52.236;-0.892;2023-07-31T12:07:48;4.20;;;2.30;;
62927;SDS011;51070;52.236;-0.892;2023-07-31T12:10:31;10.70;;;3.00;;
62927;SDS011;51070;52.236;-0.892;2023-07-31T12:13:01;6.20;;;2.80;;
62927;SDS011;51070;52.236;-0.892;2023-07-31T12:15:37;7.40;;;2.50;;
62927;SDS011;51070;52.236;-0.892;2023-07-31T12:18:05;6.70;;;2.70;;
62927;SDS011;51070;52.236;-0.892;2023-07-31T12:20:32;8.10;;;3.30;;
62927;SDS011;51070;52.236;-0.892;2023-07-31T12:22:57;9.20;;;3.30;;
62927;SDS011;51070;52.236;-0.892;2023-07-31T12:25:28;5.90;;;2.60;;
62927;SDS011;51070;52.236;-0.892;2023-07-31T12:27:54;5.50;;;2.70;;
62927;SDS011;51070;52.236;-0.892;2023-07-31T12:30:29;8.30;;;2.80;;
62927;SDS011;51070;52.236;-0.892;2023-07-31T12:33:04;5.70;;;3.40;;
62927;SDS011;51070;52.236;-0.892;2023-07-31T12:35:37;8.00;;;2.80;;
62927;SDS011;51070;52.236;-0.892;2023-07-31T12:38:05;6.00;;;2.50;;
62927;SDS011;51070;52.236;-0.892;2023-07-31T12:40:31;8.70;;;3.20;;
62927;SDS011;51070;52.236;-0.892;2023-07-31T12:42:57;6.10;;;2.80;;
62927;SDS011;51070;52.236;-0.892;2023-07-31T12:45:22;7.60;;;3.30;;
62927;SDS011;51070;52.236;-0.892;2023-07-31T12:47:48;6.70;;;2.50;;
62927;SDS011;51070;52.236;-0.892;2023-07-31T12:50:14;6.50;;;3.10;;
62927;SDS011;51070;52.236;-0.892;2023-07-31T12:52:39;7.40;;;3.10;;
62927;SDS011;51070;52.236;-0.892;2023-07-31T12:55:04;5.80;;;2.80;;
62927;SDS011;51070;52.236;-0.892;2023-07-31T12:57:31;9.40;;;3.20;;
62927;SDS011;51070;52.236;-0.892;2023-07-31T12:59:56;7.10;;;2.90;;
62927;SDS011;51070;52.236;-0.892;2023-07-31T13:02:21;6.00;;;2.90;;
62927;SDS011;51070;52.236;-0.892;2023-07-31T13:04:48;7.40;;;2.60;;
62927;SDS011;51070;52.236;-0.892;2023-07-31T13:07:15;8.20;;;2.60;;
62927;SDS011;51070;52.236;-0.892;2023-07-31T13:09:41;5.60;;;3.30;;
62927;SDS011;51070;52.236;-0.892;2023-07-31T13:12:06;6.90;;;3.40;;
62927;SDS011;51070;52.236;-0.892;2023-07-31T13:14:32;9.00;;;3.70;;
62927;SDS011;51070;52.236;-0.892;2023-07-31T13:16:58;8.10;;;3.20;;
62927;SDS011;51070;52.236;-0.892;2023-07-31T13:19:23;5.00;;;2.60;;
62927;SDS011;51070;52.236;-0.892;2023-07-31T13:21:48;7.30;;;3.40;;
62927;SDS011;51070;52.236;-0.892;2023-07-31T13:24:14;7.80;;;3.50;;
62927;SDS011;51070;52.236;-0.892;2023-07-31T13:26:39;11.90;;;4.40;;
62927;SDS011;51070;52.236;-0.892;2023-07-31T13:29:05;8.60;;;3.40;;
62927;SDS011;51070;52.236;-0.892;2023-07-31T13:31:30;7.20;;;3.70;;
62927;SDS011;51070;52.236;-0.892;2023-07-31T13:33:55;10.00;;;3.60;;
62927;SDS011;51070;52.236;-0.892;2023-07-31T13:36:21;9.20;;;3.80;;
62927;SDS011;51070;52.236;-0.892;2023-07-31T13:38:46;7.00;;;2.90;;
62927;SDS011;51070;52.236;-0.892;2023-07-31T13:41:11;6.20;;;3.30;;
62927;SDS011;51070;52.236;-0.892;2023-07-31T13:43:37;6.90;;;3.50;;
62927;SDS011;51070;52.236;-0.892;2023-07-31T13:46:02;7.60;;;3.50;;
62927;SDS011;51070;52.236;-0.892;2023-07-31T13:48:32;9.10;;;3.90;;
62927;SDS011;51070;52.236;-0.892;2023-07-31T13:50:59;7.40;;;3.90;;
62927;SDS011;51070;52.236;-0.892;2023-07-31T13:53:25;8.40;;;4.00;;
62927;SDS011;51070;52.236;-0.892;2023-07-31T13:55:50;9.00;;;4.10;;
62927;SDS011;51070;52.236;-0.892;2023-07-31T13:58:15;10.10;;;4.30;;
62927;SDS011;51070;52.236;-0.892;2023-07-31T14:00:41;8.60;;;4.00;;
62927;SDS011;51070;52.236;-0.892;2023-07-31T14:03:07;8.00;;;3.40;;
62927;SDS011;51070;52.236;-0.892;2023-07-31T14:05:32;5.40;;;2.90;;
62927;SDS011;51070;52.236;-0.892;2023-07-31T14:07:58;8.30;;;4.50;;
62927;SDS011;51070;52.236;-0.892;2023-07-31T14:10:23;8.00;;;4.20;;
62927;SDS011;51070;52.236;-0.892;2023-07-31T14:12:49;8.50;;;4.20;;
62927;SDS011;51070;52.236;-0.892;2023-07-31T14:15:14;8.80;;;4.10;;
62927;SDS011;51070;52.236;-0.892;2023-07-31T14:17:39;8.90;;;4.70;;
62927;SDS011;51070;52.236;-0.892;2023-07-31T14:20:05;9.10;;;3.70;;
62927;SDS011;51070;52.236;-0.892;2023-07-31T14:22:31;5.30;;;3.20;;
62927;SDS011;51070;52.236;-0.892;2023-07-31T14:24:59;8.10;;;3.40;;
62927;SDS011;51070;52.236;-0.892;2023-07-31T14:27:25;8.40;;;3.60;;
62927;SDS011;51070;52.236;-0.892;2023-07-31T14:29:51;9.90;;;4.10;;
62927;SDS011;51070;52.236;-0.892;2023-07-31T14:32:16;6.90;;;3.70;;
62927;SDS011;51070;52.236;-0.892;2023-07-31T14:34:41;7.20;;;3.90;;
62927;SDS011;51070;52.236;-0.892;2023-07-31T14:37:07;12.00;;;4.50;;
62927;SDS011;51070;52.236;-0.892;2023-07-31T14:39:32;6.30;;;3.40;;
62927;SDS011;51070;52.236;-0.892;2023-07-31T14:41:57;9.60;;;3.50;;
62927;SDS011;51070;52.236;-0.892;2023-07-31T14:44:23;7.20;;;3.90;;
62927;SDS011;51070;52.236;-0.892;2023-07-31T14:46:48;7.00;;;3.40;;
62927;SDS011;51070;52.236;-0.892;2023-07-31T14:49:14;7.70;;;3.70;;